Time;durP1;ratioP1;P1;durP2;ratioP2;P2;SDS_P1;SDS_P2;PMS_P1;PMS_P2;Temp;Humidity;BMP_temperature;BMP_pressure;BME280_temperature;BME280_humidity;BME280_pressure;Samples;Min_cycle;Max_cycle;Signal;HPM_P1;HPM_P2
2022/11/15 00:00:26;;;;;;;32.28;21.15;;;5.70;99.90;;;;;;5073931;28;20028;-58
2022/11/15 00:02:52;;;;;;;34.55;20.67;;;5.70;99.90;;;;;;5074523;28;20491;-58
2022/11/15 00:05:18;;;;;;;28.42;19.88;;;5.70;99.90;;;;;;5076388;28;20125;-60
2022/11/15 00:07:44;;;;;;;31.10;20.52;;;5.70;99.90;;;;;;5063916;28;20168;-59
2022/11/15 00:10:09;;;;;;;32.40;20.85;;;5.70;99.90;;;;;;5070862;28;20492;-59
2022/11/15 00:12:35;;;;;;;31.30;21.77;;;5.70;99.90;;;;;;5074015;28;20504;-59
2022/11/15 00:15:00;;;;;;;32.13;21.88;;;5.70;99.90;;;;;;5061469;28;20020;-60
2022/11/15 00:17:26;;;;;;;34.30;22.45;;;5.60;99.90;;;;;;5070214;28;20036;-59
2022/11/15 00:19:51;;;;;;;31.52;22.20;;;5.70;99.90;;;;;;5059516;28;20028;-60
2022/11/15 00:22:17;;;;;;;33.50;22.42;;;5.60;99.90;;;;;;5070013;28;20104;-59
2022/11/15 00:24:42;;;;;;;34.75;20.45;;;5.60;99.90;;;;;;5076669;28;20054;-59
2022/11/15 00:27:08;;;;;;;31.77;21.95;;;5.60;99.90;;;;;;5078988;28;20119;-59
2022/11/15 00:29:34;;;;;;;28.20;20.30;;;5.60;99.90;;;;;;5068121;28;20078;-59
2022/11/15 00:31:59;;;;;;;32.95;20.98;;;5.60;99.90;;;;;;5069582;28;20013;-59
2022/11/15 00:34:25;;;;;;;34.17;20.90;;;5.60;99.90;;;;;;5069577;28;20029;-59
2022/11/15 00:36:50;;;;;;;29.92;20.85;;;5.60;99.90;;;;;;5072252;28;20016;-60
2022/11/15 00:39:16;;;;;;;32.17;21.63;;;5.60;99.90;;;;;;5068270;28;20033;-59
2022/11/15 00:41:42;;;;;;;32.65;21.02;;;5.50;99.90;;;;;;5051803;28;20105;-60
2022/11/15 00:44:07;;;;;;;32.38;21.00;;;5.50;99.90;;;;;;5073681;28;20519;-60
2022/11/15 00:46:33;;;;;;;29.00;20.33;;;5.50;99.90;;;;;;5072797;28;20675;-60
2022/11/15 00:48:58;;;;;;;30.48;20.80;;;5.50;99.90;;;;;;5075991;28;20483;-59
2022/11/15 00:51:24;;;;;;;32.47;21.23;;;5.40;99.90;;;;;;5067792;28;20025;-59
2022/11/15 00:53:49;;;;;;;29.15;20.35;;;5.40;99.90;;;;;;5073694;28;20032;-59
2022/11/15 00:56:15;;;;;;;30.58;21.58;;;5.40;99.90;;;;;;5062253;28;20059;-60
2022/11/15 00:58:40;;;;;;;30.00;22.08;;;5.40;99.90;;;;;;5059662;28;20016;-59
2022/11/15 01:01:12;;;;;;;29.75;21.85;;;5.40;99.90;;;;;;5069402;28;20074;-59
2022/11/15 01:03:39;;;;;;;31.42;20.73;;;5.40;99.90;;;;;;5072626;28;20028;-59
2022/11/15 01:06:05;;;;;;;28.60;19.67;;;5.40;99.90;;;;;;5070560;28;20055;-60
2022/11/15 01:08:30;;;;;;;36.20;22.77;;;5.40;99.90;;;;;;5068898;28;20070;-59
2022/11/15 01:11:01;;;;;;;32.97;22.27;;;5.40;99.90;;;;;;5057150;28;20436;-59
2022/11/15 01:13:30;;;;;;;38.25;22.77;;;5.40;99.90;;;;;;5068890;28;20055;-60
2022/11/15 01:15:56;;;;;;;31.25;21.75;;;5.40;99.90;;;;;;5066048;28;20070;-60
2022/11/15 01:18:21;;;;;;;34.60;21.52;;;5.30;99.90;;;;;;5068954;28;20668;-59
2022/11/15 01:20:47;;;;;;;31.88;20.90;;;5.30;99.90;;;;;;5071276;28;20056;-57
2022/11/15 01:23:12;;;;;;;29.58;21.88;;;5.30;99.90;;;;;;5065458;28;20040;-58
2022/11/15 01:25:38;;;;;;;29.73;20.02;;;5.30;99.90;;;;;;5067375;28;20032;-60
2022/11/15 01:28:03;;;;;;;29.48;20.13;;;5.30;99.90;;;;;;5065464;28;20024;-60
2022/11/15 01:30:29;;;;;;;32.88;20.38;;;5.20;99.90;;;;;;5067583;28;20496;-59
2022/11/15 01:32:54;;;;;;;31.45;21.23;;;5.20;99.90;;;;;;5071274;28;20040;-59
2022/11/15 01:35:20;;;;;;;27.58;18.48;;;5.20;99.90;;;;;;5070600;28;20119;-60
2022/11/15 01:37:46;;;;;;;30.95;20.35;;;5.20;99.90;;;;;;5066349;28;20081;-59
2022/11/15 01:40:12;;;;;;;29.98;19.92;;;5.20;99.90;;;;;;5071267;28;20480;-59
2022/11/15 01:42:37;;;;;;;32.00;20.80;;;5.20;99.90;;;;;;5068905;28;20024;-59
2022/11/15 01:45:03;;;;;;;29.23;19.48;;;5.20;99.90;;;;;;5050594;28;20163;-58
2022/11/15 01:47:32;;;;;;;27.80;19.38;;;5.20;99.90;;;;;;5069058;28;20098;-58
2022/11/15 01:50:05;;;;;;;30.65;21.05;;;5.10;99.90;;;;;;5068405;28;20122;-59
2022/11/15 01:52:35;;;;;;;30.88;20.63;;;5.10;99.90;;;;;;5066272;28;20056;-59
2022/11/15 01:55:09;;;;;;;32.60;19.77;;;5.10;99.90;;;;;;5072295;28;20031;-59
2022/11/15 01:57:35;;;;;;;30.27;20.70;;;5.10;99.90;;;;;;5067086;28;20480;-59
2022/11/15 02:00:03;;;;;;;28.60;20.23;;;5.10;99.90;;;;;;5070399;28;20040;-59
2022/11/15 02:02:29;;;;;;;31.60;20.23;;;5.00;99.90;;;;;;5071845;28;20389;-59
2022/11/15 02:04:54;;;;;;;27.40;19.98;;;5.00;99.90;;;;;;5071242;28;20023;-59
2022/11/15 02:07:22;;;;;;;30.60;20.13;;;5.00;99.90;;;;;;5080232;28;20035;-57
2022/11/15 02:09:49;;;;;;;32.35;20.55;;;5.00;99.90;;;;;;5067781;28;20101;-59
2022/11/15 02:12:18;;;;;;;27.88;20.58;;;4.90;99.90;;;;;;5068528;28;20039;-59
2022/11/15 02:14:50;;;;;;;29.95;19.95;;;4.90;99.90;;;;;;5067869;28;20051;-59
2022/11/15 02:17:53;;;;;;;29.15;20.77;;;4.90;99.90;;;;;;5064906;28;20388;-59
2022/11/15 02:20:33;;;;;;;28.02;18.88;;;4.80;99.90;;;;;;5068687;28;20054;-59
2022/11/15 02:23:23;;;;;;;28.83;18.73;;;4.80;99.90;;;;;;5073728;28;20067;-59
2022/11/15 02:26:07;;;;;;;28.52;19.35;;;4.70;99.90;;;;;;5071068;28;20028;-59
2022/11/15 02:28:50;;;;;;;30.88;19.35;;;4.70;99.90;;;;;;5062706;28;20443;-58
2022/11/15 02:31:43;;;;;;;28.63;19.08;;;4.70;99.90;;;;;;5072196;28;20074;-59
2022/11/15 02:34:14;;;;;;;25.15;18.58;;;4.70;99.90;;;;;;5071221;28;20094;-59
2022/11/15 02:37:14;;;;;;;30.38;19.15;;;4.60;99.90;;;;;;5073215;28;20396;-59
2022/11/15 02:40:07;;;;;;;27.00;18.00;;;4.60;99.90;;;;;;5060174;28;20037;-59
2022/11/15 02:45:38;;;;;;;32.50;20.00;;;4.50;99.90;;;;;;5060731;28;20035;-59
2022/11/15 02:48:05;;;;;;;29.75;19.83;;;4.50;99.90;;;;;;5070698;28;20024;-60
2022/11/15 02:50:32;;;;;;;25.98;17.27;;;4.50;99.90;;;;;;5063172;22;1060952;-56
2022/11/15 02:52:58;;;;;;;28.80;18.80;;;4.50;99.90;;;;;;5090917;28;20032;-55
2022/11/15 02:55:27;;;;;;;31.83;19.55;;;4.50;99.90;;;;;;5091319;28;20024;-56
2022/11/15 02:58:28;;;;;;;25.67;17.40;;;4.50;99.90;;;;;;5091295;28;20028;-56
2022/11/15 03:01:29;;;;;;;28.27;18.90;;;4.50;99.90;;;;;;5045775;28;20032;-56
2022/11/15 03:04:35;;;;;;;25.70;18.13;;;4.50;99.90;;;;;;5089755;28;20103;-55
2022/11/15 03:07:35;;;;;;;28.23;19.73;;;4.40;99.90;;;;;;5091135;28;20032;-53
2022/11/15 03:10:14;;;;;;;30.10;19.85;;;4.50;99.90;;;;;;5068120;28;20108;-54
2022/11/15 03:12:55;;;;;;;27.58;19.17;;;4.50;99.90;;;;;;5079835;28;20169;-56
2022/11/15 03:15:37;;;;;;;27.70;19.35;;;4.50;99.90;;;;;;5086860;28;20031;-56
2022/11/15 03:18:22;;;;;;;31.45;19.95;;;4.50;99.90;;;;;;5086665;28;20089;-55
2022/11/15 03:20:49;;;;;;;28.52;18.15;;;4.50;99.90;;;;;;5077231;28;20043;-56
2022/11/15 03:23:14;;;;;;;25.23;17.75;;;4.50;99.90;;;;;;5090451;28;20523;-56
2022/11/15 03:25:48;;;;;;;27.25;17.83;;;4.40;99.90;;;;;;5085681;28;20036;-54
2022/11/15 03:28:25;;;;;;;29.52;18.77;;;4.40;99.90;;;;;;5089455;28;20047;-54
2022/11/15 03:30:53;;;;;;;26.85;18.35;;;4.40;99.90;;;;;;5080920;28;20391;-56
2022/11/15 03:33:21;;;;;;;28.75;18.83;;;4.40;99.90;;;;;;5090741;28;20048;-56
2022/11/15 03:35:48;;;;;;;28.83;18.15;;;4.40;99.90;;;;;;5087305;28;20036;-57
2022/11/15 03:38:24;;;;;;;28.60;18.48;;;4.40;99.90;;;;;;5091167;28;20020;-55
2022/11/15 03:41:00;;;;;;;;;;;4.40;99.90;;;;;;5082243;28;20085;-57
2022/11/15 03:43:52;;;;;;;27.65;17.58;;;4.40;99.90;;;;;;5083780;28;19908;-56
2022/11/15 03:46:59;;;;;;;24.77;16.77;;;4.40;99.90;;;;;;5086684;28;20552;-55
2022/11/15 03:49:32;;;;;;;31.27;18.55;;;4.40;99.90;;;;;;5054100;28;20105;-58
2022/11/15 03:51:59;;;;;;;25.67;18.38;;;4.40;99.90;;;;;;5083613;28;20062;-58
2022/11/15 03:54:25;;;;;;;26.25;18.55;;;4.40;99.90;;;;;;5081259;28;20020;-56
2022/11/15 03:56:51;;;;;;;29.17;17.52;;;4.40;99.90;;;;;;5080855;28;20552;-54
2022/11/15 03:59:16;;;;;;;27.08;18.40;;;4.30;99.90;;;;;;5090509;28;20028;-55
2022/11/15 04:01:42;;;;;;;27.63;18.92;;;4.30;99.90;;;;;;5073058;28;20115;-56
2022/11/15 04:04:07;;;;;;;26.33;18.15;;;4.30;99.90;;;;;;5086495;28;20058;-55
2022/11/15 04:06:33;;;;;;;28.05;18.15;;;4.30;99.90;;;;;;5079383;28;20028;-52
2022/11/15 04:08:59;;;;;;;29.20;18.92;;;4.30;99.90;;;;;;5083139;28;20024;-55
2022/11/15 04:11:24;;;;;;;26.77;18.30;;;4.30;99.90;;;;;;5080757;28;20032;-57
2022/11/15 04:13:50;;;;;;;25.08;17.35;;;4.30;99.90;;;;;;5086068;28;20032;-57
2022/11/15 04:16:15;;;;;;;24.83;17.83;;;4.30;99.90;;;;;;5096920;28;20111;-55
2022/11/15 04:18:41;;;;;;;27.15;18.42;;;4.30;99.90;;;;;;5087932;28;20671;-56
2022/11/15 04:24:12;;;;;;;26.97;17.73;;;4.30;99.90;;;;;;5034931;28;20041;-53
2022/11/15 04:26:37;;;;;;;26.58;17.63;;;4.30;99.90;;;;;;5090028;28;20507;-54
2022/11/15 04:31:47;;;;;;;25.73;16.27;;;4.30;99.90;;;;;;5087743;28;20038;-55
2022/11/15 04:34:13;;;;;;;22.83;16.27;;;4.30;99.90;;;;;;5088011;28;20508;-56
2022/11/15 04:39:22;;;;;;;21.42;16.50;;;4.20;99.90;;;;;;5078022;28;20031;-56
2022/11/15 04:41:48;;;;;;;24.73;16.13;;;4.20;99.90;;;;;;5084313;28;20388;-54
2022/11/15 04:44:13;;;;;;;22.90;16.20;;;4.20;99.90;;;;;;5080125;28;20484;-57
2022/11/15 04:46:39;;;;;;;24.60;16.75;;;4.20;99.90;;;;;;5080659;28;20032;-57
2022/11/15 04:49:04;;;;;;;22.27;16.95;;;4.20;99.90;;;;;;5076070;28;20025;-56
2022/11/15 04:51:30;;;;;;;29.85;19.83;;;4.20;99.90;;;;;;5079906;28;20028;-56
2022/11/15 04:53:55;;;;;;;23.58;16.05;;;4.30;99.90;;;;;;5085082;28;20047;-56
2022/11/15 04:56:21;;;;;;;23.00;16.45;;;4.30;99.90;;;;;;5089592;28;20028;-56
2022/11/15 04:58:49;;;;;;;28.23;18.10;;;4.30;99.90;;;;;;5088157;28;20054;-55
2022/11/15 05:01:15;;;;;;;26.65;17.55;;;4.40;99.90;;;;;;5086247;28;20060;-56
2022/11/15 05:06:26;;;;;;;25.75;16.33;;;4.40;99.90;;;;;;5088900;28;20031;-54
2022/11/15 05:08:52;;;;;;;25.75;18.02;;;4.50;99.90;;;;;;5089627;28;20013;-56
2022/11/15 05:11:18;;;;;;;25.83;17.90;;;4.50;99.90;;;;;;5087872;28;20552;-57
2022/11/15 05:13:43;;;;;;;26.55;18.23;;;4.50;99.90;;;;;;5085235;28;20024;-54
2022/11/15 05:16:09;;;;;;;23.70;16.80;;;4.50;99.90;;;;;;5084806;28;20627;-53
2022/11/15 05:18:35;;;;;;;28.70;18.67;;;4.60;99.90;;;;;;5083733;28;20559;-56
2022/11/15 05:21:09;;;;;;;26.30;17.60;;;4.60;99.90;;;;;;5087298;28;20161;-55
2022/11/15 05:23:34;;;;;;;28.73;18.23;;;4.60;99.90;;;;;;5088411;28;20020;-55
2022/11/15 05:26:02;;;;;;;29.13;18.83;;;4.60;99.90;;;;;;5087630;28;20488;-56
2022/11/15 05:28:27;;;;;;;30.02;18.10;;;4.70;99.90;;;;;;5088357;28;20403;-55
2022/11/15 05:31:01;;;;;;;25.38;17.92;;;4.70;99.90;;;;;;5084254;28;20017;-56
2022/11/15 05:33:26;;;;;;;30.55;17.58;;;4.70;99.90;;;;;;5087027;28;20032;-56
2022/11/15 05:36:00;;;;;;;29.90;19.08;;;4.70;99.90;;;;;;5085513;28;20090;-55
2022/11/15 05:38:25;;;;;;;30.15;18.58;;;4.70;99.90;;;;;;5085004;28;20091;-57
2022/11/15 05:40:51;;;;;;;26.90;17.10;;;4.70;99.90;;;;;;5084317;28;20499;-55
2022/11/15 05:43:17;;;;;;;28.05;18.02;;;4.70;99.90;;;;;;5087366;28;20542;-53
2022/11/15 05:45:43;;;;;;;24.20;17.17;;;4.70;99.90;;;;;;5078206;28;20036;-56
2022/11/15 05:48:10;;;;;;;27.83;18.80;;;4.70;99.90;;;;;;5087879;28;20070;-55
2022/11/15 05:50:38;;;;;;;27.17;17.75;;;4.80;99.90;;;;;;5080638;28;20031;-54
2022/11/15 05:53:05;;;;;;;24.83;17.88;;;4.80;99.90;;;;;;5082725;28;20024;-54
2022/11/15 05:55:31;;;;;;;30.30;19.33;;;4.80;99.90;;;;;;5088398;28;20016;-58
2022/11/15 05:57:57;;;;;;;24.48;17.27;;;4.80;99.90;;;;;;5090996;28;20636;-53
2022/11/15 06:00:23;;;;;;;25.20;17.23;;;4.90;99.90;;;;;;5089274;28;20035;-53
2022/11/15 06:02:48;;;;;;;28.17;18.17;;;4.90;99.90;;;;;;5081140;28;20164;-56
2022/11/15 06:05:14;;;;;;;26.00;17.40;;;4.90;99.90;;;;;;5081338;28;20377;-54
2022/11/15 06:07:39;;;;;;;24.50;16.83;;;4.90;99.90;;;;;;5091886;28;20035;-56
2022/11/15 06:10:06;;;;;;;30.65;19.13;;;5.00;99.90;;;;;;5087404;28;20024;-57
2022/11/15 06:12:31;;;;;;;25.40;17.35;;;5.00;99.90;;;;;;5086945;28;20017;-56
2022/11/15 06:14:57;;;;;;;24.92;17.20;;;5.00;99.90;;;;;;5087076;28;20024;-55
2022/11/15 06:17:22;;;;;;;24.10;17.17;;;5.00;99.90;;;;;;5088401;28;20515;-54
2022/11/15 06:19:48;;;;;;;25.80;16.33;;;5.10;99.90;;;;;;5088528;28;20419;-55
2022/11/15 06:22:13;;;;;;;26.38;17.23;;;5.10;99.90;;;;;;5091512;28;20117;-55
2022/11/15 06:24:39;;;;;;;22.17;16.02;;;5.20;99.90;;;;;;5087310;28;20028;-52
2022/11/15 06:27:04;;;;;;;23.58;16.33;;;5.20;99.90;;;;;;5090321;28;20054;-56
2022/11/15 06:29:30;;;;;;;25.52;16.85;;;5.20;99.90;;;;;;5090066;28;20032;-57
2022/11/15 06:31:56;;;;;;;28.33;17.45;;;5.20;99.90;;;;;;5089056;28;20050;-56
2022/11/15 06:34:21;;;;;;;24.67;16.98;;;5.30;99.90;;;;;;5091763;28;20357;-55
2022/11/15 06:36:47;;;;;;;23.25;16.55;;;5.30;99.90;;;;;;5092216;28;20024;-56
2022/11/15 06:39:12;;;;;;;27.13;18.10;;;5.30;99.90;;;;;;5080064;28;20039;-54
2022/11/15 06:41:38;;;;;;;26.23;17.23;;;5.30;99.90;;;;;;5085198;28;20032;-52
2022/11/15 06:44:03;;;;;;;27.75;17.13;;;5.40;99.90;;;;;;5077284;28;20032;-55
2022/11/15 06:46:29;;;;;;;24.55;16.17;;;5.40;99.90;;;;;;5091912;28;20078;-57
2022/11/15 06:48:54;;;;;;;23.27;16.33;;;5.40;99.90;;;;;;5084527;28;20395;-56
2022/11/15 06:51:20;;;;;;;25.42;16.58;;;5.40;99.90;;;;;;5088539;28;20614;-54
2022/11/15 06:53:46;;;;;;;24.23;17.48;;;5.40;99.90;;;;;;5087056;28;20456;-52
2022/11/15 06:56:12;;;;;;;21.50;16.10;;;5.40;99.90;;;;;;5088062;28;20032;-53
2022/11/15 06:58:37;;;;;;;25.05;16.98;;;5.50;99.90;;;;;;5091589;28;20451;-55
2022/11/15 07:01:09;;;;;;;24.52;16.20;;;5.50;99.90;;;;;;5073303;28;20028;-55
2022/11/15 07:03:36;;;;;;;24.75;16.98;;;5.50;99.90;;;;;;5078135;28;20608;-57
2022/11/15 07:06:03;;;;;;;22.52;15.75;;;5.50;99.90;;;;;;5087552;28;20115;-57
2022/11/15 07:08:29;;;;;;;22.40;15.85;;;5.60;99.90;;;;;;5088235;28;20522;-56
2022/11/15 07:10:58;;;;;;;24.10;16.52;;;5.60;99.90;;;;;;5075414;28;20031;-53
2022/11/15 07:13:25;;;;;;;24.77;16.38;;;5.60;99.90;;;;;;5066038;28;20051;-56
2022/11/15 07:15:51;;;;;;;23.27;16.15;;;5.60;99.90;;;;;;5084258;28;20035;-53
2022/11/15 07:18:16;;;;;;;23.02;15.77;;;5.70;99.90;;;;;;5079834;28;20565;-56
2022/11/15 07:20:42;;;;;;;20.98;16.67;;;5.70;99.90;;;;;;5091477;28;20439;-57
2022/11/15 07:23:07;;;;;;;25.63;17.70;;;5.70;99.90;;;;;;5091157;28;20491;-54
2022/11/15 07:25:33;;;;;;;23.73;16.42;;;5.80;99.90;;;;;;5094155;28;20024;-53
2022/11/15 07:28:00;;;;;;;23.10;17.40;;;5.80;99.90;;;;;;5091113;28;20028;-55
2022/11/15 07:30:26;;;;;;;24.33;16.85;;;5.80;99.90;;;;;;5090802;28;20023;-56
2022/11/15 07:32:56;;;;;;;23.70;17.17;;;5.90;99.90;;;;;;5090442;28;20016;-55
2022/11/15 07:35:23;;;;;;;25.08;17.05;;;5.90;99.90;;;;;;5090957;28;20032;-55
2022/11/15 07:38:00;;;;;;;23.08;16.48;;;5.90;99.90;;;;;;5092826;28;20024;-56
2022/11/15 07:40:31;;;;;;;24.05;15.98;;;6.00;99.90;;;;;;5086434;28;20025;-55
2022/11/15 07:43:00;;;;;;;20.60;15.90;;;6.00;99.90;;;;;;5089876;28;20024;-55
2022/11/15 07:45:26;;;;;;;24.77;15.52;;;6.00;99.90;;;;;;5087736;28;20100;-52
2022/11/15 07:47:52;;;;;;;22.02;15.15;;;6.10;99.90;;;;;;5088110;28;20095;-53
2022/11/15 07:50:18;;;;;;;22.58;16.25;;;6.10;99.90;;;;;;5083008;28;20369;-52
2022/11/15 07:52:44;;;;;;;23.33;15.77;;;6.10;99.90;;;;;;5085864;28;20100;-55
2022/11/15 07:55:10;;;;;;;25.33;16.55;;;6.20;99.90;;;;;;5089876;28;20028;-57
2022/11/15 07:57:36;;;;;;;23.55;15.45;;;6.20;99.90;;;;;;5081420;28;20067;-53
2022/11/15 08:00:03;;;;;;;21.50;15.82;;;6.20;99.90;;;;;;5088843;28;20051;-53
2022/11/15 08:02:29;;;;;;;23.08;16.42;;;6.30;99.90;;;;;;5085329;28;20067;-55
2022/11/15 08:04:55;;;;;;;28.25;18.25;;;6.30;99.90;;;;;;5087094;28;20058;-56
2022/11/15 08:07:20;;;;;;;28.55;18.30;;;6.30;99.90;;;;;;5090283;28;20107;-54
2022/11/15 08:09:46;;;;;;;26.58;16.70;;;6.30;99.90;;;;;;5090562;28;20483;-55
2022/11/15 08:12:11;;;;;;;29.75;17.10;;;6.40;99.90;;;;;;5090378;28;20038;-55
2022/11/15 08:14:38;;;;;;;21.98;17.00;;;6.40;99.90;;;;;;5091905;28;20035;-57
2022/11/15 08:17:03;;;;;;;20.80;14.90;;;6.40;99.90;;;;;;5091012;28;20047;-53
2022/11/15 08:19:29;;;;;;;24.48;16.38;;;6.50;99.90;;;;;;5091191;28;20067;-56
2022/11/15 08:21:55;;;;;;;26.58;16.90;;;6.50;99.90;;;;;;5089615;28;20546;-54
2022/11/15 08:24:20;;;;;;;25.85;16.90;;;6.50;99.90;;;;;;5090617;28;20030;-55
2022/11/15 08:26:46;;;;;;;19.88;14.45;;;6.50;99.90;;;;;;5090537;28;20028;-57
2022/11/15 08:29:12;;;;;;;21.17;15.65;;;6.60;99.90;;;;;;5090635;28;20012;-58
2022/11/15 08:31:37;;;;;;;23.27;15.70;;;6.60;99.90;;;;;;5090143;28;20605;-56
2022/11/15 08:34:05;;;;;;;24.60;15.63;;;6.50;99.90;;;;;;5077476;28;20029;-56
2022/11/15 08:36:31;;;;;;;24.20;15.98;;;6.60;99.90;;;;;;5087790;28;20436;-57
2022/11/15 08:38:57;;;;;;;18.77;14.52;;;6.60;99.90;;;;;;5081484;28;20028;-55
2022/11/15 08:41:35;;;;;;;21.05;14.95;;;6.70;99.90;;;;;;5087842;28;20035;-55
2022/11/15 08:44:01;;;;;;;21.23;14.82;;;6.70;99.90;;;;;;5088008;28;20027;-54
2022/11/15 08:46:26;;;;;;;23.42;15.23;;;6.70;99.90;;;;;;5079876;28;20479;-55
2022/11/15 08:48:52;;;;;;;19.17;14.52;;;6.70;99.90;;;;;;5083727;28;20031;-57
2022/11/15 08:51:18;;;;;;;21.27;14.18;;;6.80;99.90;;;;;;5093270;22;20045;-59
2022/11/15 08:53:44;;;;;;;19.17;14.90;;;6.80;99.90;;;;;;5032542;28;20071;-59
2022/11/15 08:56:12;;;;;;;21.73;15.15;;;6.80;99.90;;;;;;5029828;28;20039;-60
2022/11/15 08:58:37;;;;;;;20.20;14.23;;;6.90;99.90;;;;;;5034755;28;20496;-60
2022/11/15 09:01:04;;;;;;;20.70;14.50;;;6.90;99.90;;;;;;5029489;28;20045;-60
2022/11/15 09:03:30;;;;;;;21.63;15.27;;;6.90;99.90;;;;;;5029286;28;20497;-60
2022/11/15 09:05:57;;;;;;;23.40;14.93;;;7.00;99.90;;;;;;5029854;28;20033;-60
2022/11/15 09:08:24;;;;;;;18.95;14.70;;;7.00;99.90;;;;;;5029331;28;20033;-60
2022/11/15 09:10:49;;;;;;;23.10;14.32;;;7.00;99.90;;;;;;5023466;28;20595;-60
2022/11/15 09:13:15;;;;;;;18.55;14.38;;;7.10;99.90;;;;;;5025285;28;20024;-59
2022/11/15 09:15:40;;;;;;;21.90;14.32;;;7.10;99.90;;;;;;5029361;28;20485;-60
2022/11/15 09:18:06;;;;;;;17.38;13.07;;;7.10;99.90;;;;;;5029050;28;20037;-59
2022/11/15 09:20:32;;;;;;;16.35;12.48;;;7.20;99.90;;;;;;5024861;28;20053;-60
2022/11/15 09:23:01;;;;;;;19.55;13.65;;;7.20;99.90;;;;;;5013362;28;20481;-60
2022/11/15 09:25:28;;;;;;;19.58;13.32;;;7.20;99.90;;;;;;5028962;28;20021;-60
2022/11/15 09:27:53;;;;;;;19.27;13.38;;;7.20;99.90;;;;;;5029243;28;20464;-60
2022/11/15 09:30:19;;;;;;;20.98;13.48;;;7.20;99.90;;;;;;5028966;28;20100;-60
2022/11/15 09:32:44;;;;;;;17.83;14.40;;;7.30;99.90;;;;;;5028939;28;20025;-61
2022/11/15 09:35:10;;;;;;;20.25;13.38;;;7.30;99.90;;;;;;5035555;28;20108;-60
2022/11/15 09:37:35;;;;;;;19.10;13.05;;;7.30;99.90;;;;;;5029207;28;20087;-59
2022/11/15 09:40:01;;;;;;;17.80;13.13;;;7.30;99.90;;;;;;5029278;28;20100;-60
2022/11/15 09:42:57;;;;;;;17.00;13.60;;;7.40;99.90;;;;;;5028980;28;20044;-60
2022/11/15 09:45:45;;;;;;;19.08;13.90;;;7.40;99.90;;;;;;5006986;28;20115;-60
2022/11/15 09:48:33;;;;;;;18.95;13.63;;;7.50;99.90;;;;;;5029171;28;20030;-60
2022/11/15 09:50:59;;;;;;;23.98;12.93;;;7.50;99.90;;;;;;5028560;28;20448;-60
2022/11/15 09:53:42;;;;;;;22.50;13.95;;;7.50;99.90;;;;;;5028638;28;20033;-60
2022/11/15 09:56:26;;;;;;;17.33;12.35;;;7.60;99.90;;;;;;5028730;28;20108;-60
2022/11/15 09:58:54;;;;;;;17.20;13.38;;;7.60;99.90;;;;;;5028988;28;20113;-60
2022/11/15 10:01:53;;;;;;;19.38;12.93;;;7.60;99.90;;;;;;5026750;28;20032;-61
2022/11/15 10:04:21;;;;;;;18.90;13.77;;;7.70;99.90;;;;;;5011711;28;20389;-60
2022/11/15 10:07:01;;;;;;;19.75;14.18;;;7.70;99.90;;;;;;5028521;28;20509;-61
2022/11/15 10:09:33;;;;;;;17.20;12.85;;;7.80;99.90;;;;;;5022422;28;20037;-60
2022/11/15 10:11:59;;;;;;;16.40;12.75;;;7.80;99.90;;;;;;5028413;28;20025;-61
2022/11/15 10:14:28;;;;;;;17.23;12.68;;;7.80;99.90;;;;;;5028873;28;20465;-60
2022/11/15 10:17:13;;;;;;;17.55;13.55;;;7.90;99.90;;;;;;5027762;28;20022;-60
2022/11/15 10:19:45;;;;;;;19.75;12.90;;;7.90;99.90;;;;;;5028958;28;20043;-60
2022/11/15 10:22:25;;;;;;;15.02;12.20;;;8.00;99.90;;;;;;5027762;28;20048;-61
2022/11/15 10:25:06;;;;;;;18.13;12.45;;;8.00;99.90;;;;;;5018848;28;20679;-61
2022/11/15 10:27:32;;;;;;;15.57;11.48;;;8.10;99.90;;;;;;5022870;28;20030;-61
2022/11/15 10:29:57;;;;;;;15.57;12.45;;;8.20;99.90;;;;;;5027565;28;20029;-59
2022/11/15 10:32:23;;;;;;;17.55;12.80;;;8.20;99.90;;;;;;5011416;28;20168;-59
2022/11/15 10:34:50;;;;;;;16.52;12.93;;;8.30;99.90;;;;;;5034497;28;20032;-59
2022/11/15 10:37:30;;;;;;;15.40;12.05;;;8.30;99.90;;;;;;5022376;28;20025;-59
2022/11/15 10:40:16;;;;;;;17.90;12.30;;;8.30;99.90;;;;;;5025771;28;20048;-60
2022/11/15 10:42:42;;;;;;;19.48;12.60;;;8.40;99.90;;;;;;5028132;28;20114;-60
2022/11/15 10:45:30;;;;;;;15.23;12.43;;;8.40;99.90;;;;;;5031801;28;20091;-59
2022/11/15 10:48:18;;;;;;;16.45;11.38;;;8.40;99.90;;;;;;5032223;28;20030;-59
2022/11/15 10:50:45;;;;;;;13.18;10.82;;;8.40;99.90;;;;;;5032051;28;20029;-58
2022/11/15 10:53:25;;;;;;;15.75;11.55;;;8.50;99.90;;;;;;5031702;28;20029;-59
2022/11/15 10:55:59;;;;;;;13.95;10.95;;;8.50;99.90;;;;;;5032381;28;20029;-59
2022/11/15 10:58:41;;;;;;;13.32;9.95;;;8.60;99.90;;;;;;5022929;28;20064;-59
2022/11/15 11:01:10;;;;;;;13.40;11.00;;;8.50;99.90;;;;;;5013780;28;20529;-59
2022/11/15 11:03:38;;;;;;;13.77;10.48;;;8.60;99.90;;;;;;5023733;28;20119;-59
2022/11/15 11:06:07;;;;;;;12.35;11.05;;;8.60;99.90;;;;;;5031762;28;20444;-59
2022/11/15 11:08:33;;;;;;;11.75;10.18;;;8.70;99.90;;;;;;5031237;28;20488;-59
2022/11/15 11:11:00;;;;;;;16.60;11.10;;;8.70;99.90;;;;;;5026507;28;20018;-59
2022/11/15 11:13:29;;;;;;;13.93;11.45;;;8.70;99.90;;;;;;5015256;28;20101;-60
2022/11/15 11:16:18;;;;;;;15.13;10.80;;;8.80;99.90;;;;;;5031249;28;20036;-60
2022/11/15 11:18:59;;;;;;;16.75;11.35;;;8.80;99.90;;;;;;5019814;28;20045;-60
2022/11/15 11:22:02;;;;;;;14.95;10.73;;;8.80;99.90;;;;;;5024224;28;20033;-60
2022/11/15 11:24:59;;;;;;;16.98;10.88;;;8.90;99.90;;;;;;5003978;28;20129;-60
2022/11/15 11:27:49;;;;;;;15.40;11.20;;;8.90;99.90;;;;;;5012975;28;20053;-59
2022/11/15 11:30:47;;;;;;;14.23;10.93;;;9.00;99.90;;;;;;5009756;28;20028;-59
2022/11/15 11:33:27;;;;;;;13.90;10.60;;;9.00;99.90;;;;;;5006626;28;20049;-60
2022/11/15 11:36:09;;;;;;;13.63;10.23;;;9.10;99.90;;;;;;5034080;28;20026;-59
2022/11/15 11:38:49;;;;;;;14.77;11.45;;;9.10;99.90;;;;;;5031302;28;20489;-60
2022/11/15 11:41:53;;;;;;;14.68;9.82;;;9.20;99.90;;;;;;5029345;28;20489;-60
2022/11/15 11:44:54;;;;;;;12.82;10.23;;;9.20;99.90;;;;;;5020897;28;20087;-60
2022/11/15 11:47:34;;;;;;;15.20;10.40;;;9.20;99.90;;;;;;4958099;28;20572;-59
2022/11/15 11:50:15;;;;;;;12.82;9.60;;;9.30;99.90;;;;;;5007429;28;20044;-60
2022/11/15 11:53:05;;;;;;;14.13;9.93;;;9.30;99.90;;;;;;5030155;28;20554;-60
2022/11/15 11:55:39;;;;;;;16.63;10.50;;;9.30;99.90;;;;;;5028581;28;20075;-60
2022/11/15 11:58:33;;;;;;;12.27;9.38;;;9.40;99.90;;;;;;5023086;28;20056;-58
2022/11/15 12:01:23;;;;;;;10.73;9.35;;;9.40;99.90;;;;;;5030516;28;20117;-61
2022/11/15 12:04:03;;;;;;;11.45;9.05;;;9.50;99.90;;;;;;5027839;28;20090;-60
2022/11/15 12:07:11;;;;;;;16.17;9.50;;;9.50;99.90;;;;;;5026933;28;20025;-60
2022/11/15 12:09:49;;;;;;;;;;;9.60;99.90;;;;;;5014766;28;20033;-60
2022/11/15 12:12:31;;;;;;;12.02;8.75;;;9.60;99.90;;;;;;5029653;28;19915;-59
2022/11/15 12:15:00;;;;;;;12.50;8.93;;;9.60;99.90;;;;;;5030323;28;20049;-60
2022/11/15 12:17:31;;;;;;;13.90;8.65;;;9.70;99.90;;;;;;5020650;28;20029;-60
2022/11/15 12:20:03;;;;;;;10.32;8.73;;;9.70;99.90;;;;;;5030339;28;20099;-61
2022/11/15 12:22:43;;;;;;;12.32;8.88;;;9.70;99.90;;;;;;5029876;28;20028;-61
2022/11/15 12:25:39;;;;;;;11.20;9.32;;;9.80;99.90;;;;;;5012051;28;20029;-61
2022/11/15 12:28:13;;;;;;;14.65;10.88;;;9.80;99.90;;;;;;5010798;28;20638;-61
2022/11/15 12:31:03;;;;;;;14.27;9.75;;;9.90;99.90;;;;;;5030168;28;20036;-61
2022/11/15 12:33:41;;;;;;;20.05;12.25;;;9.90;99.90;;;;;;5027437;28;20025;-60
2022/11/15 12:36:20;;;;;;;22.58;14.25;;;9.90;99.90;;;;;;5030365;28;20017;-61
2022/11/15 12:38:56;;;;;;;18.08;10.23;;;10.00;99.90;;;;;;5029767;28;20527;-61
2022/11/15 12:41:33;;;;;;;13.38;9.38;;;9.90;99.90;;;;;;5029854;28;20481;-61
2022/11/15 12:44:00;;;;;;;10.85;8.93;;;10.00;99.90;;;;;;5020063;28;20125;-61
2022/11/15 12:46:31;;;;;;;13.38;8.90;;;10.00;99.90;;;;;;5030042;28;20032;-59
2022/11/15 12:48:59;;;;;;;13.48;8.95;;;10.10;99.90;;;;;;5030021;28;20087;-60
2022/11/15 12:51:52;;;;;;;10.65;7.80;;;10.10;99.90;;;;;;5029059;28;20029;-60
2022/11/15 12:54:23;;;;;;;11.73;8.50;;;10.20;99.90;;;;;;4990102;28;20029;-60
2022/11/15 12:57:07;;;;;;;11.27;8.00;;;10.10;99.90;;;;;;5027213;28;20033;-60
2022/11/15 12:59:54;;;;;;;10.35;8.40;;;10.10;99.90;;;;;;5026659;28;20030;-61
2022/11/15 13:02:41;;;;;;;12.35;9.18;;;10.20;99.90;;;;;;5021997;28;20072;-60
2022/11/15 13:05:19;;;;;;;11.05;8.38;;;10.20;99.90;;;;;;5028831;28;20025;-60
2022/11/15 13:07:44;;;;;;;10.65;8.65;;;10.20;99.90;;;;;;5029463;28;20539;-60
2022/11/15 13:10:10;;;;;;;10.40;8.23;;;10.30;99.90;;;;;;5029287;28;20037;-60
2022/11/15 13:12:40;;;;;;;11.65;8.50;;;10.30;99.90;;;;;;5029112;28;20096;-60